createdAt,value
2023-02-17T00:01:32.435Z,4.50
2023-02-17T00:04:00.796Z,4.50
2023-02-17T00:06:32.248Z,4.50
2023-02-17T00:09:00.301Z,4.50
2023-02-17T00:11:28.467Z,4.50
2023-02-17T00:13:56.614Z,4.40
2023-02-17T00:16:27.031Z,4.40
2023-02-17T00:18:59.186Z,4.30
2023-02-17T00:21:30.385Z,4.30
2023-02-17T00:23:59.616Z,4.30
2023-02-17T00:26:27.318Z,4.30
2023-02-17T00:28:54.644Z,4.30
2023-02-17T00:31:23.485Z,4.30
2023-02-17T00:33:55.863Z,4.30
2023-02-17T00:36:24.152Z,4.30
2023-02-17T00:38:51.718Z,4.20
2023-02-17T00:41:19.880Z,4.30
2023-02-17T00:43:48.663Z,4.20
2023-02-17T00:46:17.848Z,4.20
2023-02-17T00:48:47.132Z,4.20
2023-02-17T00:51:15.973Z,4.30
2023-02-17T00:53:44.389Z,4.20
2023-02-17T00:56:12.601Z,4.20
2023-02-17T00:58:41.427Z,4.20
2023-02-17T01:01:10.618Z,4.20
2023-02-17T01:03:42.151Z,4.20
2023-02-17T01:06:18.384Z,4.10
2023-02-17T01:08:45.868Z,4.10
2023-02-17T01:11:25.550Z,4.10
2023-02-17T01:13:55.130Z,4.10
2023-02-17T01:16:27.725Z,4.10
2023-02-17T01:18:56.304Z,4.10
2023-02-17T01:21:29.026Z,4.10
2023-02-17T01:24:00.299Z,4.10
2023-02-17T01:26:32.179Z,4.10
2023-02-17T01:29:03.321Z,4.10
2023-02-17T01:31:30.459Z,4.20
2023-02-17T01:34:02.652Z,4.10
2023-02-17T01:36:30.034Z,4.10
2023-02-17T01:38:57.595Z,4.10
2023-02-17T01:41:28.241Z,4.10
2023-02-17T01:44:21.901Z,4.10
2023-02-17T01:46:53.102Z,4.10
2023-02-17T01:49:39.408Z,4.10
2023-02-17T01:52:26.324Z,4.10
2023-02-17T01:55:06.445Z,4.10
2023-02-17T01:57:38.949Z,4.10
2023-02-17T02:00:09.595Z,4.20
2023-02-17T02:02:45.831Z,4.10
2023-02-17T02:05:17.696Z,4.20
2023-02-17T02:07:48.390Z,4.20
2023-02-17T02:10:19.930Z,4.20
2023-02-17T02:12:47.326Z,4.20
2023-02-17T02:15:20.842Z,4.20
2023-02-17T02:18:12.140Z,4.20
2023-02-17T02:21:22.821Z,4.20
2023-02-17T02:24:00.219Z,4.20
2023-02-17T02:27:15.373Z,4.20
2023-02-17T02:30:23.032Z,4.20
2023-02-17T02:33:12.614Z,4.20
2023-02-17T02:36:00.381Z,4.10
2023-02-17T02:38:46.889Z,4.20
2023-02-17T02:41:22.358Z,4.10
2023-02-17T02:43:53.179Z,4.20
2023-02-17T02:46:20.168Z,4.20
2023-02-17T02:48:48.466Z,4.20
2023-02-17T02:52:02.298Z,4.20
2023-02-17T02:54:35.888Z,4.20
2023-02-17T02:57:27.230Z,4.20
2023-02-17T03:00:35.371Z,4.20
2023-02-17T03:03:41.604Z,4.10
2023-02-17T03:06:41.400Z,4.10
2023-02-17T03:09:22.339Z,4.10
2023-02-17T03:11:50.917Z,4.10
2023-02-17T03:14:21.562Z,4.10
2023-02-17T03:16:51.539Z,4.10
2023-02-17T03:19:23.395Z,4.10
2023-02-17T03:21:57.114Z,4.10
2023-02-17T03:24:25.380Z,4.10
2023-02-17T03:26:52.820Z,4.10
2023-02-17T03:29:20.031Z,4.10
2023-02-17T03:31:47.456Z,4.10
2023-02-17T03:34:15.217Z,4.10
2023-02-17T03:36:42.736Z,4.00
2023-02-17T03:39:09.762Z,4.10
2023-02-17T03:41:36.945Z,4.10
2023-02-17T03:44:04.103Z,4.10
2023-02-17T03:46:31.367Z,4.10
2023-02-17T03:48:58.559Z,4.10
2023-02-17T03:51:26.268Z,4.10
2023-02-17T03:53:53.261Z,4.10
2023-02-17T03:56:20.852Z,4.10
2023-02-17T03:58:48.092Z,4.10
2023-02-17T04:01:15.414Z,4.10
2023-02-17T04:03:42.898Z,4.20
2023-02-17T04:06:11.353Z,4.20
2023-02-17T04:08:40.074Z,4.20
2023-02-17T04:11:09.695Z,4.10
2023-02-17T04:13:37.913Z,4.10
2023-02-17T04:16:08.770Z,4.10
2023-02-17T04:18:36.023Z,4.10
2023-02-17T04:21:04.801Z,4.10
2023-02-17T04:23:32.246Z,4.20
2023-02-17T04:25:59.455Z,4.20
2023-02-17T04:28:27.087Z,4.10
2023-02-17T04:30:54.397Z,4.20
2023-02-17T04:33:21.424Z,4.10
2023-02-17T04:35:48.719Z,4.20
2023-02-17T04:38:16.226Z,4.20
2023-02-17T04:40:43.614Z,4.20
2023-02-17T04:43:10.651Z,4.10
2023-02-17T04:45:38.871Z,4.10
2023-02-17T04:48:06.056Z,4.20
2023-02-17T04:50:33.244Z,4.10
2023-02-17T04:53:00.264Z,4.10
2023-02-17T04:55:27.585Z,4.20
2023-02-17T04:57:54.577Z,4.20
2023-02-17T05:00:22.080Z,4.10
2023-02-17T05:02:49.053Z,4.10
2023-02-17T05:05:18.764Z,4.10
2023-02-17T05:07:46.818Z,4.10
2023-02-17T05:10:17.010Z,4.10
2023-02-17T05:12:44.712Z,4.10
2023-02-17T05:15:12.922Z,4.20
2023-02-17T05:17:40.384Z,4.20
2023-02-17T05:20:09.802Z,4.20
2023-02-17T05:22:37.502Z,4.20
2023-02-17T05:25:05.531Z,4.20
2023-02-17T05:27:33.913Z,4.20
2023-02-17T05:30:01.429Z,4.20
2023-02-17T05:32:28.696Z,4.20
2023-02-17T05:34:55.975Z,4.20
2023-02-17T05:37:23.038Z,4.10
2023-02-17T05:39:50.263Z,4.20
2023-02-17T05:42:17.263Z,4.20
2023-02-17T05:44:44.473Z,4.20
2023-02-17T05:47:11.498Z,4.20
2023-02-17T05:49:38.800Z,4.20
2023-02-17T05:52:05.802Z,4.20
2023-02-17T05:54:33.023Z,4.20
2023-02-17T05:56:59.990Z,4.20
2023-02-17T05:59:27.556Z,4.20
2023-02-17T06:01:54.514Z,4.20
2023-02-17T06:04:21.786Z,4.20
2023-02-17T06:06:48.805Z,4.20
2023-02-17T06:09:16.016Z,4.30
2023-02-17T06:11:42.984Z,4.30
2023-02-17T06:14:10.505Z,4.30
2023-02-17T06:16:37.549Z,4.30
2023-02-17T06:19:05.203Z,4.30
2023-02-17T06:21:32.584Z,4.30
2023-02-17T06:23:59.798Z,4.30
2023-02-17T06:26:26.921Z,4.30
2023-02-17T06:28:54.289Z,4.30
2023-02-17T06:31:21.422Z,4.30
2023-02-17T06:33:48.796Z,4.30
2023-02-17T06:36:15.687Z,4.30
2023-02-17T06:38:42.982Z,4.30
2023-02-17T06:41:10.488Z,4.30
2023-02-17T06:43:38.683Z,4.30
2023-02-17T06:46:07.298Z,4.30
2023-02-17T06:48:35.166Z,4.30
2023-02-17T06:51:02.330Z,4.30
2023-02-17T06:53:29.615Z,4.30
2023-02-17T06:55:56.753Z,4.30
2023-02-17T06:58:23.895Z,4.30
2023-02-17T07:00:51.584Z,4.30
2023-02-17T07:03:18.930Z,4.30
2023-02-17T07:05:45.931Z,4.30
2023-02-17T07:08:13.106Z,4.40
2023-02-17T07:10:40.199Z,4.40
2023-02-17T07:13:07.385Z,4.40
2023-02-17T07:15:34.811Z,4.40
2023-02-17T07:18:03.018Z,4.40
2023-02-17T07:20:31.943Z,4.40
2023-02-17T07:23:00.712Z,4.40
2023-02-17T07:25:27.853Z,4.50
2023-02-17T07:27:55.060Z,4.50
2023-02-17T07:30:22.084Z,4.50
2023-02-17T07:32:49.355Z,4.50
2023-02-17T07:35:16.967Z,4.50
2023-02-17T07:37:44.285Z,4.50
2023-02-17T07:40:12.424Z,4.50
2023-02-17T07:42:39.854Z,4.50
2023-02-17T07:45:07.662Z,4.50
2023-02-17T07:47:35.004Z,4.50
2023-02-17T07:50:02.077Z,4.50
2023-02-17T07:52:29.345Z,4.50
2023-02-17T07:54:56.400Z,4.60
2023-02-17T07:57:23.585Z,4.60
2023-02-17T07:59:50.583Z,4.70
2023-02-17T08:02:17.866Z,4.70
2023-02-17T08:04:45.392Z,4.70
2023-02-17T08:07:12.617Z,4.80
2023-02-17T08:09:58.568Z,4.80
2023-02-17T08:12:44.402Z,4.90
2023-02-17T08:15:12.148Z,5.00
2023-02-17T08:17:39.478Z,5.00
2023-02-17T08:20:08.972Z,5.10
2023-02-17T08:22:37.165Z,5.10
2023-02-17T08:25:06.009Z,5.20
2023-02-17T08:27:33.449Z,5.20
2023-02-17T08:30:00.842Z,5.30
2023-02-17T08:32:28.544Z,5.40
2023-02-17T08:34:57.136Z,5.40
2023-02-17T08:37:25.366Z,5.50
2023-02-17T08:39:52.286Z,5.70
2023-02-17T08:42:19.836Z,5.70
2023-02-17T08:44:46.836Z,5.70
2023-02-17T08:47:14.147Z,5.80
2023-02-17T08:49:41.104Z,5.90
2023-02-17T08:52:08.569Z,6.00
2023-02-17T08:54:36.451Z,6.00
2023-02-17T08:57:04.291Z,6.10
2023-02-17T08:59:31.638Z,6.20
2023-02-17T09:01:58.975Z,6.30
2023-02-17T09:04:26.093Z,6.40
2023-02-17T09:06:58.614Z,6.50
2023-02-17T09:09:26.921Z,6.60
2023-02-17T09:11:57.433Z,6.70
2023-02-17T09:14:24.792Z,6.70
2023-02-17T09:16:54.792Z,6.80
2023-02-17T09:19:22.275Z,6.90
2023-02-17T09:21:49.863Z,6.90
2023-02-17T09:24:19.001Z,6.90
2023-02-17T09:26:46.314Z,7.00
2023-02-17T09:29:13.284Z,7.00
2023-02-17T09:31:40.869Z,7.10
2023-02-17T09:34:07.883Z,7.10
2023-02-17T09:36:41.198Z,7.20
2023-02-17T09:39:11.601Z,7.20
2023-02-17T09:41:48.246Z,7.20
2023-02-17T09:44:23.555Z,7.20
2023-02-17T09:47:11.525Z,7.20
2023-02-17T09:49:48.119Z,7.30
2023-02-17T09:52:29.580Z,7.30
2023-02-17T09:55:28.102Z,7.40
2023-02-17T09:58:04.532Z,7.40
2023-02-17T10:01:02.284Z,7.50
2023-02-17T10:04:02.570Z,7.60
2023-02-17T10:06:36.015Z,7.70
2023-02-17T10:09:17.764Z,7.80
2023-02-17T10:12:01.993Z,7.90
2023-02-17T10:15:08.691Z,7.90
2023-02-17T10:18:13.134Z,8.00
2023-02-17T10:20:49.270Z,8.00
2023-02-17T10:23:35.095Z,8.10
2023-02-17T10:26:45.365Z,8.20
2023-02-17T10:29:33.886Z,8.30
2023-02-17T10:32:24.330Z,8.40
2023-02-17T10:35:39.093Z,8.50
2023-02-17T10:38:50.386Z,8.60
2023-02-17T10:41:25.092Z,8.70
2023-02-17T10:43:52.919Z,8.70
2023-02-17T10:46:29.282Z,8.80
2023-02-17T10:48:59.469Z,8.90
2023-02-17T10:51:31.118Z,8.90
2023-02-17T10:54:25.694Z,9.00
2023-02-17T10:56:58.230Z,9.00
2023-02-17T10:59:39.777Z,9.10
2023-02-17T11:02:39.822Z,9.10
2023-02-17T11:05:09.010Z,9.10
2023-02-17T11:07:41.794Z,9.10
2023-02-17T11:10:32.548Z,9.10
2023-02-17T11:13:02.523Z,9.20
2023-02-17T11:15:37.232Z,9.20
2023-02-17T11:18:18.302Z,9.20
2023-02-17T11:20:47.190Z,9.20
2023-02-17T11:23:23.240Z,9.20
2023-02-17T11:26:07.875Z,9.20
2023-02-17T11:28:35.227Z,9.10
2023-02-17T11:31:04.851Z,9.10
2023-02-17T11:33:40.462Z,9.10
2023-02-17T11:36:13.510Z,9.00
2023-02-17T11:38:40.401Z,9.10
2023-02-17T11:41:08.754Z,9.10
2023-02-17T11:43:39.020Z,9.10
2023-02-17T11:46:33.667Z,9.00
2023-02-17T11:49:36.987Z,9.00
2023-02-17T11:52:24.178Z,9.00
2023-02-17T11:55:42.559Z,9.00
2023-02-17T11:59:00.186Z,9.10
2023-02-17T12:01:59.507Z,9.00
2023-02-17T12:04:32.411Z,9.10
2023-02-17T12:07:22.488Z,9.10
2023-02-17T12:10:10.614Z,9.10
2023-02-17T12:12:56.057Z,9.10
2023-02-17T12:16:03.575Z,9.20
2023-02-17T12:19:14.183Z,9.30
2023-02-17T12:21:55.594Z,9.30
2023-02-17T12:25:15.564Z,9.40
2023-02-17T12:28:26.909Z,9.40
2023-02-17T12:31:21.238Z,9.50
2023-02-17T12:34:15.408Z,9.60
2023-02-17T12:36:43.908Z,9.70
2023-02-17T12:39:24.352Z,9.70
2023-02-17T12:42:01.319Z,9.80
2023-02-17T12:44:39.064Z,9.80
2023-02-17T12:47:59.312Z,9.90
2023-02-17T12:50:37.272Z,9.90
2023-02-17T12:53:14.073Z,10.00
2023-02-17T12:55:50.800Z,10.00
2023-02-17T12:58:28.677Z,10.00
2023-02-17T13:01:11.464Z,10.10
2023-02-17T13:03:38.944Z,10.10
2023-02-17T13:06:37.992Z,10.10
2023-02-17T13:09:17.502Z,10.10
2023-02-17T13:11:45.650Z,10.10
2023-02-17T13:14:25.959Z,10.10
2023-02-17T13:16:54.317Z,10.10
2023-02-17T13:19:35.390Z,10.00
2023-02-17T13:22:04.061Z,10.00
2023-02-17T13:24:51.030Z,10.00
2023-02-17T13:27:22.765Z,10.00
2023-02-17T13:30:26.133Z,10.00
2023-02-17T13:33:24.576Z,9.90
2023-02-17T13:35:51.631Z,10.00
2023-02-17T13:38:31.109Z,10.00
2023-02-17T13:41:04.328Z,10.00
2023-02-17T13:43:42.824Z,10.00
2023-02-17T13:46:19.797Z,10.00
2023-02-17T13:48:58.999Z,10.00
2023-02-17T13:51:30.570Z,10.10
2023-02-17T13:54:09.036Z,10.00
2023-02-17T13:56:36.170Z,10.10
2023-02-17T13:59:18.095Z,10.10
2023-02-17T14:01:46.991Z,10.10
2023-02-17T14:04:28.108Z,10.20
2023-02-17T14:06:59.979Z,10.20
2023-02-17T14:09:35.489Z,10.30
2023-02-17T14:12:08.138Z,10.30
2023-02-17T14:14:38.243Z,10.30
2023-02-17T14:17:27.502Z,10.30
2023-02-17T14:19:54.790Z,10.40
2023-02-17T14:22:30.725Z,10.40
2023-02-17T14:25:06.692Z,10.40
2023-02-17T14:27:47.740Z,10.40
2023-02-17T14:30:27.350Z,10.40
2023-02-17T14:33:17.163Z,10.40
2023-02-17T14:35:58.061Z,10.40
2023-02-17T14:38:39.677Z,10.40
2023-02-17T14:41:11.678Z,10.40
2023-02-17T14:43:38.706Z,10.40
2023-02-17T14:46:06.366Z,10.40
2023-02-17T14:48:33.545Z,10.30
2023-02-17T14:51:00.995Z,10.30
2023-02-17T14:53:30.854Z,10.40
2023-02-17T14:56:27.524Z,10.30
2023-02-17T14:58:54.565Z,10.30
2023-02-17T15:01:24.639Z,10.30
2023-02-17T15:03:53.625Z,10.30
2023-02-17T15:06:39.318Z,10.20
2023-02-17T15:09:13.217Z,10.10
2023-02-17T15:11:45.533Z,10.10
2023-02-17T15:14:25.289Z,10.00
2023-02-17T15:16:52.522Z,9.90
2023-02-17T15:19:19.576Z,9.90
2023-02-17T15:21:51.438Z,9.80
2023-02-17T15:24:31.172Z,9.80
2023-02-17T15:27:03.183Z,9.70
2023-02-17T15:29:30.669Z,9.70
2023-02-17T15:32:03.462Z,9.60
2023-02-17T15:34:34.996Z,9.60
2023-02-17T15:37:02.433Z,9.50
2023-02-17T15:39:29.564Z,9.50
2023-02-17T15:42:05.832Z,9.50
2023-02-17T15:44:45.167Z,9.50
2023-02-17T15:47:17.490Z,9.40
2023-02-17T15:49:45.285Z,9.40
2023-02-17T15:52:14.453Z,9.40
2023-02-17T15:54:43.032Z,9.40
2023-02-17T15:57:24.579Z,9.30
2023-02-17T15:59:55.150Z,9.30
2023-02-17T16:02:25.718Z,9.30
2023-02-17T16:04:52.842Z,9.30
2023-02-17T16:07:20.069Z,9.20
2023-02-17T16:09:47.052Z,9.20
2023-02-17T16:12:26.539Z,9.20
2023-02-17T16:14:55.239Z,9.10
2023-02-17T16:17:22.887Z,9.10
2023-02-17T16:19:49.840Z,9.10
2023-02-17T16:22:17.298Z,9.10
2023-02-17T16:24:44.319Z,9.10
2023-02-17T16:27:16.726Z,9.00
2023-02-17T16:29:43.881Z,9.00
2023-02-17T16:32:13.146Z,9.00
2023-02-17T16:34:42.699Z,9.00
2023-02-17T16:37:17.003Z,8.90
2023-02-17T16:39:45.754Z,8.90
2023-02-17T16:42:14.764Z,8.90
2023-02-17T16:44:42.372Z,8.90
2023-02-17T16:47:20.813Z,9.00
2023-02-17T16:49:48.499Z,8.90
2023-02-17T16:52:34.000Z,8.90
2023-02-17T16:55:01.334Z,8.90
2023-02-17T16:57:28.717Z,8.90
2023-02-17T16:59:55.893Z,8.90
2023-02-17T17:02:23.194Z,8.80
2023-02-17T17:04:50.511Z,8.90
2023-02-17T17:07:18.032Z,8.90
2023-02-17T17:09:48.686Z,8.80
2023-02-17T17:12:23.499Z,8.80
2023-02-17T17:14:50.711Z,8.80
2023-02-17T17:17:18.075Z,8.80
2023-02-17T17:19:44.960Z,8.80
2023-02-17T17:22:12.511Z,8.80
2023-02-17T17:24:39.729Z,8.80
2023-02-17T17:27:07.116Z,8.80
2023-02-17T17:29:34.156Z,8.80
2023-02-17T17:32:02.367Z,8.90
2023-02-17T17:34:29.364Z,8.80
2023-02-17T17:36:57.347Z,8.80
2023-02-17T17:39:25.175Z,8.90
2023-02-17T17:41:52.541Z,8.90
2023-02-17T17:44:20.573Z,8.90
2023-02-17T17:46:47.871Z,8.90
2023-02-17T17:49:17.831Z,8.90
2023-02-17T17:51:45.353Z,8.90
2023-02-17T17:54:12.403Z,8.90
2023-02-17T17:56:43.133Z,8.90
2023-02-17T17:59:12.611Z,8.90
2023-02-17T18:01:40.351Z,8.90
2023-02-17T18:04:09.264Z,9.00
2023-02-17T18:06:46.786Z,9.00
2023-02-17T18:09:31.767Z,9.00
2023-02-17T18:12:07.371Z,9.00
2023-02-17T18:14:38.171Z,9.00
2023-02-17T18:17:07.789Z,9.10
2023-02-17T18:19:35.210Z,9.20
2023-02-17T18:22:02.755Z,9.10
2023-02-17T18:24:30.347Z,9.20
2023-02-17T18:26:57.658Z,9.20
2023-02-17T18:29:24.654Z,9.30
2023-02-17T18:31:52.499Z,9.30
2023-02-17T18:34:19.476Z,9.30
2023-02-17T18:36:46.730Z,9.20
2023-02-17T18:39:13.673Z,9.30
2023-02-17T18:41:40.908Z,9.30
2023-02-17T18:44:09.753Z,9.30
2023-02-17T18:46:39.838Z,9.40
2023-02-17T18:49:07.226Z,9.40
2023-02-17T18:51:34.677Z,9.40
2023-02-17T18:54:02.769Z,9.40
2023-02-17T18:56:33.163Z,9.40
2023-02-17T18:59:00.601Z,9.40
2023-02-17T19:01:33.092Z,9.30
2023-02-17T19:04:00.872Z,9.40
2023-02-17T19:06:33.639Z,9.40
2023-02-17T19:09:04.272Z,9.40
2023-02-17T19:11:33.216Z,9.40
2023-02-17T19:14:02.330Z,9.40
2023-02-17T19:16:32.041Z,9.40
2023-02-17T19:19:00.561Z,9.30
2023-02-17T19:21:28.286Z,9.30
2023-02-17T19:23:56.119Z,9.40
2023-02-17T19:26:23.488Z,9.40
2023-02-17T19:28:50.521Z,9.40
2023-02-17T19:31:20.377Z,9.40
2023-02-17T19:33:48.123Z,9.40
2023-02-17T19:36:21.739Z,9.50
2023-02-17T19:38:50.260Z,9.50
2023-02-17T19:41:18.957Z,9.60
2023-02-17T19:43:46.196Z,9.60
2023-02-17T19:46:18.040Z,9.60
2023-02-17T19:48:45.544Z,9.70
2023-02-17T19:51:13.916Z,9.80
2023-02-17T19:53:43.060Z,9.80
2023-02-17T19:56:32.345Z,9.90
2023-02-17T19:58:59.969Z,9.90
2023-02-17T20:01:31.135Z,10.00
2023-02-17T20:04:04.376Z,10.00
2023-02-17T20:06:41.486Z,10.00
2023-02-17T20:09:15.658Z,10.00
2023-02-17T20:11:45.025Z,10.00
2023-02-17T20:14:12.720Z,10.00
2023-02-17T20:16:41.066Z,10.00
2023-02-17T20:19:08.283Z,10.00
2023-02-17T20:21:38.506Z,10.00
2023-02-17T20:24:06.369Z,9.90
2023-02-17T20:26:41.335Z,9.90
2023-02-17T20:29:09.807Z,9.90
2023-02-17T20:31:39.853Z,9.90
2023-02-17T20:34:20.628Z,9.90
2023-02-17T20:36:47.903Z,9.90
2023-02-17T20:39:14.862Z,9.90
2023-02-17T20:41:42.237Z,9.90
2023-02-17T20:44:12.317Z,9.90
2023-02-17T20:46:42.767Z,9.90
2023-02-17T20:49:10.522Z,10.00
2023-02-17T20:51:37.850Z,9.90
2023-02-17T20:54:05.256Z,9.90
2023-02-17T20:56:38.714Z,9.90
2023-02-17T20:59:08.948Z,10.00
2023-02-17T21:01:36.762Z,10.00
2023-02-17T21:04:03.706Z,10.00
2023-02-17T21:06:42.900Z,10.00
2023-02-17T21:09:18.552Z,10.00
